sensor_id;sensor_type;location;lat;lon;timestamp;temperature;humidity
14016;DHT22;7083;48.854;9.158;2023-11-21T00:01:45;6.80;99.90
14016;DHT22;7083;48.854;9.158;2023-11-21T00:04:13;6.90;99.90
14016;DHT22;7083;48.854;9.158;2023-11-21T00:06:42;6.90;99.90
14016;DHT22;7083;48.854;9.158;2023-11-21T00:09:12;6.80;99.90
14016;DHT22;7083;48.854;9.158;2023-11-21T00:11:40;6.80;99.90
14016;DHT22;7083;48.854;9.158;2023-11-21T00:14:07;6.80;99.90
14016;DHT22;7083;48.854;9.158;2023-11-21T00:16:34;6.80;99.90
14016;DHT22;7083;48.854;9.158;2023-11-21T00:19:01;6.90;99.90
14016;DHT22;7083;48.854;9.158;2023-11-21T00:21:28;6.90;99.90
14016;DHT22;7083;48.854;9.158;2023-11-21T00:23:56;7.00;99.90
14016;DHT22;7083;48.854;9.158;2023-11-21T00:26:22;7.00;99.90
14016;DHT22;7083;48.854;9.158;2023-11-21T00:28:49;7.00;99.90
14016;DHT22;7083;48.854;9.158;2023-11-21T00:31:16;7.10;99.90
14016;DHT22;7083;48.854;9.158;2023-11-21T00:33:43;7.10;99.90
14016;DHT22;7083;48.854;9.158;2023-11-21T00:36:10;7.10;99.90
14016;DHT22;7083;48.854;9.158;2023-11-21T00:38:36;7.20;99.90
14016;DHT22;7083;48.854;9.158;2023-11-21T00:41:06;7.20;99.90
14016;DHT22;7083;48.854;9.158;2023-11-21T00:43:33;7.20;99.90
14016;DHT22;7083;48.854;9.158;2023-11-21T00:46:03;7.20;99.90
14016;DHT22;7083;48.854;9.158;2023-11-21T00:48:30;7.30;99.90
14016;DHT22;7083;48.854;9.158;2023-11-21T00:50:57;7.40;99.90
14016;DHT22;7083;48.854;9.158;2023-11-21T00:53:23;7.30;99.90
14016;DHT22;7083;48.854;9.158;2023-11-21T00:55:50;7.40;99.90
14016;DHT22;7083;48.854;9.158;2023-11-21T00:58:24;7.40;99.90
14016;DHT22;7083;48.854;9.158;2023-11-21T01:00:54;7.40;99.90
14016;DHT22;7083;48.854;9.158;2023-11-21T01:03:21;9.40;99.90
14016;DHT22;7083;48.854;9.158;2023-11-21T01:05:48;7.40;99.90
14016;DHT22;7083;48.854;9.158;2023-11-21T01:08:15;7.40;99.90
14016;DHT22;7083;48.854;9.158;2023-11-21T01:10:42;8.10;99.90
14016;DHT22;7083;48.854;9.158;2023-11-21T01:13:09;7.70;99.90
14016;DHT22;7083;48.854;9.158;2023-11-21T01:15:37;9.00;99.90
14016;DHT22;7083;48.854;9.158;2023-11-21T01:18:04;7.20;99.90
14016;DHT22;7083;48.854;9.158;2023-11-21T01:20:31;7.40;99.90
14016;DHT22;7083;48.854;9.158;2023-11-21T01:22:58;7.50;99.90
14016;DHT22;7083;48.854;9.158;2023-11-21T01:25:25;7.40;99.90
14016;DHT22;7083;48.854;9.158;2023-11-21T01:27:52;7.40;99.90
14016;DHT22;7083;48.854;9.158;2023-11-21T01:30:18;7.40;99.90
14016;DHT22;7083;48.854;9.158;2023-11-21T01:32:47;8.90;99.90
14016;DHT22;7083;48.854;9.158;2023-11-21T01:35:13;9.10;99.90
14016;DHT22;7083;48.854;9.158;2023-11-21T01:37:40;7.40;99.90
14016;DHT22;7083;48.854;9.158;2023-11-21T01:40:08;7.30;99.90
14016;DHT22;7083;48.854;9.158;2023-11-21T01:42:39;7.40;99.90
14016;DHT22;7083;48.854;9.158;2023-11-21T01:45:06;7.40;99.90
14016;DHT22;7083;48.854;9.158;2023-11-21T01:47:35;7.40;99.90
14016;DHT22;7083;48.854;9.158;2023-11-21T01:50:07;7.40;99.90
14016;DHT22;7083;48.854;9.158;2023-11-21T01:52:34;7.40;99.90
14016;DHT22;7083;48.854;9.158;2023-11-21T01:55:02;7.40;99.90
14016;DHT22;7083;48.854;9.158;2023-11-21T01:57:30;7.40;99.90
14016;DHT22;7083;48.854;9.158;2023-11-21T02:00:10;8.00;99.90
14016;DHT22;7083;48.854;9.158;2023-11-21T02:02:45;7.40;99.90
14016;DHT22;7083;48.854;9.158;2023-11-21T02:05:14;7.40;99.90
14016;DHT22;7083;48.854;9.158;2023-11-21T02:07:42;7.30;99.90
14016;DHT22;7083;48.854;9.158;2023-11-21T02:10:09;7.40;99.90
14016;DHT22;7083;48.854;9.158;2023-11-21T02:12:40;7.30;99.90
14016;DHT22;7083;48.854;9.158;2023-11-21T02:15:07;7.40;99.90
14016;DHT22;7083;48.854;9.158;2023-11-21T02:17:40;7.40;99.90
14016;DHT22;7083;48.854;9.158;2023-11-21T02:20:08;7.40;99.90
14016;DHT22;7083;48.854;9.158;2023-11-21T02:22:42;7.40;99.90
14016;DHT22;7083;48.854;9.158;2023-11-21T02:25:11;7.50;99.90
14016;DHT22;7083;48.854;9.158;2023-11-21T02:27:39;8.40;99.90
14016;DHT22;7083;48.854;9.158;2023-11-21T02:30:07;7.50;99.90
14016;DHT22;7083;48.854;9.158;2023-11-21T02:32:38;7.50;99.90
14016;DHT22;7083;48.854;9.158;2023-11-21T02:35:06;7.50;99.90
14016;DHT22;7083;48.854;9.158;2023-11-21T02:37:33;7.60;99.90
14016;DHT22;7083;48.854;9.158;2023-11-21T02:40:00;7.60;99.90
14016;DHT22;7083;48.854;9.158;2023-11-21T02:42:30;7.60;99.90
14016;DHT22;7083;48.854;9.158;2023-11-21T02:44:57;7.60;99.90
14016;DHT22;7083;48.854;9.158;2023-11-21T02:47:24;7.60;99.90
14016;DHT22;7083;48.854;9.158;2023-11-21T02:49:51;7.60;99.90
14016;DHT22;7083;48.854;9.158;2023-11-21T02:52:18;7.60;99.90
14016;DHT22;7083;48.854;9.158;2023-11-21T02:54:45;7.60;99.90
14016;DHT22;7083;48.854;9.158;2023-11-21T02:57:12;7.50;99.90
14016;DHT22;7083;48.854;9.158;2023-11-21T02:59:40;7.50;99.90
14016;DHT22;7083;48.854;9.158;2023-11-21T03:02:07;7.50;99.90
14016;DHT22;7083;48.854;9.158;2023-11-21T03:04:34;7.50;99.90
14016;DHT22;7083;48.854;9.158;2023-11-21T03:07:01;7.50;99.90
14016;DHT22;7083;48.854;9.158;2023-11-21T03:09:28;9.60;99.90
14016;DHT22;7083;48.854;9.158;2023-11-21T03:11:54;9.00;99.90
14016;DHT22;7083;48.854;9.158;2023-11-21T03:14:21;7.40;99.90
14016;DHT22;7083;48.854;9.158;2023-11-21T03:16:49;7.40;99.90
14016;DHT22;7083;48.854;9.158;2023-11-21T03:19:16;7.40;99.90
14016;DHT22;7083;48.854;9.158;2023-11-21T03:21:43;7.40;99.90
14016;DHT22;7083;48.854;9.158;2023-11-21T03:24:12;7.40;99.90
14016;DHT22;7083;48.854;9.158;2023-11-21T03:26:44;7.30;99.90
14016;DHT22;7083;48.854;9.158;2023-11-21T03:29:12;7.40;99.90
14016;DHT22;7083;48.854;9.158;2023-11-21T03:31:38;7.40;99.90
14016;DHT22;7083;48.854;9.158;2023-11-21T03:34:09;7.30;99.90
14016;DHT22;7083;48.854;9.158;2023-11-21T03:36:36;7.40;99.90
14016;DHT22;7083;48.854;9.158;2023-11-21T03:39:03;7.40;99.90
14016;DHT22;7083;48.854;9.158;2023-11-21T03:41:30;7.40;99.90
14016;DHT22;7083;48.854;9.158;2023-11-21T03:43:57;7.40;99.90
14016;DHT22;7083;48.854;9.158;2023-11-21T03:46:24;7.40;99.90
14016;DHT22;7083;48.854;9.158;2023-11-21T03:48:51;7.40;99.90
14016;DHT22;7083;48.854;9.158;2023-11-21T03:51:19;7.40;99.90
14016;DHT22;7083;48.854;9.158;2023-11-21T03:53:45;7.40;99.90
14016;DHT22;7083;48.854;9.158;2023-11-21T03:56:13;7.40;99.90
14016;DHT22;7083;48.854;9.158;2023-11-21T03:58:40;7.40;99.90
14016;DHT22;7083;48.854;9.158;2023-11-21T04:01:07;7.40;99.90
14016;DHT22;7083;48.854;9.158;2023-11-21T04:03:33;7.50;99.90
14016;DHT22;7083;48.854;9.158;2023-11-21T04:06:00;7.50;99.90
14016;DHT22;7083;48.854;9.158;2023-11-21T04:08:28;7.50;99.90
14016;DHT22;7083;48.854;9.158;2023-11-21T04:10:55;7.50;99.90
14016;DHT22;7083;48.854;9.158;2023-11-21T04:13:30;7.50;99.90
14016;DHT22;7083;48.854;9.158;2023-11-21T04:15:59;7.60;99.90
14016;DHT22;7083;48.854;9.158;2023-11-21T04:18:28;7.50;99.90
14016;DHT22;7083;48.854;9.158;2023-11-21T04:20:55;7.50;99.90
14016;DHT22;7083;48.854;9.158;2023-11-21T04:23:22;7.50;99.90
14016;DHT22;7083;48.854;9.158;2023-11-21T04:25:50;7.50;99.90
14016;DHT22;7083;48.854;9.158;2023-11-21T04:28:17;7.50;99.90
14016;DHT22;7083;48.854;9.158;2023-11-21T04:30:45;7.50;99.90
14016;DHT22;7083;48.854;9.158;2023-11-21T04:33:11;7.40;99.90
14016;DHT22;7083;48.854;9.158;2023-11-21T04:35:38;7.30;99.90
14016;DHT22;7083;48.854;9.158;2023-11-21T04:38:05;7.20;99.90
14016;DHT22;7083;48.854;9.158;2023-11-21T04:40:32;7.20;99.90
14016;DHT22;7083;48.854;9.158;2023-11-21T04:43:00;7.20;99.90
14016;DHT22;7083;48.854;9.158;2023-11-21T04:45:27;7.10;99.90
14016;DHT22;7083;48.854;9.158;2023-11-21T04:47:54;7.10;99.90
14016;DHT22;7083;48.854;9.158;2023-11-21T04:50:20;7.10;99.90
14016;DHT22;7083;48.854;9.158;2023-11-21T04:52:47;7.10;99.90
14016;DHT22;7083;48.854;9.158;2023-11-21T04:55:14;7.10;99.90
14016;DHT22;7083;48.854;9.158;2023-11-21T04:57:40;7.10;99.90
14016;DHT22;7083;48.854;9.158;2023-11-21T05:00:10;7.00;99.90
14016;DHT22;7083;48.854;9.158;2023-11-21T05:02:36;7.00;99.90
14016;DHT22;7083;48.854;9.158;2023-11-21T05:05:04;7.00;99.90
14016;DHT22;7083;48.854;9.158;2023-11-21T05:07:31;7.10;99.90
14016;DHT22;7083;48.854;9.158;2023-11-21T05:10:00;7.00;99.90
14016;DHT22;7083;48.854;9.158;2023-11-21T05:12:31;7.00;99.90
14016;DHT22;7083;48.854;9.158;2023-11-21T05:15:00;7.00;99.90
14016;DHT22;7083;48.854;9.158;2023-11-21T05:17:29;6.90;99.90
14016;DHT22;7083;48.854;9.158;2023-11-21T05:19:57;6.90;99.90
14016;DHT22;7083;48.854;9.158;2023-11-21T05:22:25;6.80;99.90
14016;DHT22;7083;48.854;9.158;2023-11-21T05:24:52;6.70;99.90
14016;DHT22;7083;48.854;9.158;2023-11-21T05:27:25;6.70;99.90
14016;DHT22;7083;48.854;9.158;2023-11-21T05:29:51;6.60;99.90
14016;DHT22;7083;48.854;9.158;2023-11-21T05:32:18;6.60;99.90
14016;DHT22;7083;48.854;9.158;2023-11-21T05:34:46;6.50;99.90
14016;DHT22;7083;48.854;9.158;2023-11-21T05:37:13;6.50;99.90
14016;DHT22;7083;48.854;9.158;2023-11-21T05:39:39;6.50;99.90
14016;DHT22;7083;48.854;9.158;2023-11-21T05:42:06;6.50;99.90
14016;DHT22;7083;48.854;9.158;2023-11-21T05:44:34;6.50;99.90
14016;DHT22;7083;48.854;9.158;2023-11-21T05:47:01;6.50;99.90
14016;DHT22;7083;48.854;9.158;2023-11-21T05:49:28;6.50;99.90
14016;DHT22;7083;48.854;9.158;2023-11-21T05:51:56;6.50;99.90
14016;DHT22;7083;48.854;9.158;2023-11-21T05:54:23;6.50;99.90
14016;DHT22;7083;48.854;9.158;2023-11-21T05:56:50;6.60;99.90
14016;DHT22;7083;48.854;9.158;2023-11-21T05:59:17;6.60;99.90
14016;DHT22;7083;48.854;9.158;2023-11-21T06:01:43;6.70;99.90
14016;DHT22;7083;48.854;9.158;2023-11-21T06:04:11;6.70;99.90
14016;DHT22;7083;48.854;9.158;2023-11-21T06:06:38;6.70;99.90
14016;DHT22;7083;48.854;9.158;2023-11-21T06:09:06;6.70;99.90
14016;DHT22;7083;48.854;9.158;2023-11-21T06:11:34;6.70;99.90
14016;DHT22;7083;48.854;9.158;2023-11-21T06:14:01;6.70;99.90
14016;DHT22;7083;48.854;9.158;2023-11-21T06:16:27;6.70;99.90
14016;DHT22;7083;48.854;9.158;2023-11-21T06:18:54;6.70;99.90
14016;DHT22;7083;48.854;9.158;2023-11-21T06:21:21;6.70;99.90
14016;DHT22;7083;48.854;9.158;2023-11-21T06:23:47;6.60;99.90
14016;DHT22;7083;48.854;9.158;2023-11-21T06:26:15;6.60;99.90
14016;DHT22;7083;48.854;9.158;2023-11-21T06:28:42;6.60;99.90
14016;DHT22;7083;48.854;9.158;2023-11-21T06:31:09;6.60;99.90
14016;DHT22;7083;48.854;9.158;2023-11-21T06:33:36;6.60;99.90
14016;DHT22;7083;48.854;9.158;2023-11-21T06:36:03;6.60;99.90
14016;DHT22;7083;48.854;9.158;2023-11-21T06:38:29;6.60;99.90
14016;DHT22;7083;48.854;9.158;2023-11-21T06:40:57;6.50;99.90
14016;DHT22;7083;48.854;9.158;2023-11-21T06:43:28;6.50;99.90
14016;DHT22;7083;48.854;9.158;2023-11-21T06:45:56;6.50;99.90
14016;DHT22;7083;48.854;9.158;2023-11-21T06:48:23;6.50;99.90
14016;DHT22;7083;48.854;9.158;2023-11-21T06:50:50;6.50;99.90
14016;DHT22;7083;48.854;9.158;2023-11-21T06:53:17;6.50;99.90
14016;DHT22;7083;48.854;9.158;2023-11-21T06:55:44;6.60;99.90
14016;DHT22;7083;48.854;9.158;2023-11-21T06:58:11;6.60;99.90
14016;DHT22;7083;48.854;9.158;2023-11-21T07:00:41;6.60;99.90
14016;DHT22;7083;48.854;9.158;2023-11-21T07:03:12;6.60;99.90
14016;DHT22;7083;48.854;9.158;2023-11-21T07:05:38;6.70;99.90
14016;DHT22;7083;48.854;9.158;2023-11-21T07:08:05;6.70;99.90
14016;DHT22;7083;48.854;9.158;2023-11-21T07:10:33;6.70;99.90
14016;DHT22;7083;48.854;9.158;2023-11-21T07:13:00;6.70;99.90
14016;DHT22;7083;48.854;9.158;2023-11-21T07:15:27;6.80;99.90
14016;DHT22;7083;48.854;9.158;2023-11-21T07:17:55;6.80;99.90
14016;DHT22;7083;48.854;9.158;2023-11-21T07:20:21;6.80;99.90
14016;DHT22;7083;48.854;9.158;2023-11-21T07:22:48;6.90;99.90
14016;DHT22;7083;48.854;9.158;2023-11-21T07:25:15;6.90;99.90
14016;DHT22;7083;48.854;9.158;2023-11-21T07:27:42;7.00;99.90
14016;DHT22;7083;48.854;9.158;2023-11-21T07:30:10;7.00;99.90
14016;DHT22;7083;48.854;9.158;2023-11-21T07:32:38;7.10;99.90
14016;DHT22;7083;48.854;9.158;2023-11-21T07:35:08;7.10;99.90
14016;DHT22;7083;48.854;9.158;2023-11-21T07:37:34;7.20;99.90
14016;DHT22;7083;48.854;9.158;2023-11-21T07:40:01;7.30;99.90
14016;DHT22;7083;48.854;9.158;2023-11-21T07:42:28;7.40;99.90
14016;DHT22;7083;48.854;9.158;2023-11-21T07:44:55;7.50;99.90
14016;DHT22;7083;48.854;9.158;2023-11-21T07:47:21;7.60;99.90
14016;DHT22;7083;48.854;9.158;2023-11-21T07:49:49;7.70;99.90
14016;DHT22;7083;48.854;9.158;2023-11-21T07:52:17;7.70;99.90
14016;DHT22;7083;48.854;9.158;2023-11-21T07:54:44;7.80;99.90
14016;DHT22;7083;48.854;9.158;2023-11-21T07:57:11;7.80;99.90
14016;DHT22;7083;48.854;9.158;2023-11-21T07:59:38;7.90;99.90
14016;DHT22;7083;48.854;9.158;2023-11-21T08:02:06;7.90;99.90
14016;DHT22;7083;48.854;9.158;2023-11-21T08:04:32;8.00;99.90
14016;DHT22;7083;48.854;9.158;2023-11-21T08:06:59;8.10;99.90
14016;DHT22;7083;48.854;9.158;2023-11-21T08:09:28;8.20;99.90
14016;DHT22;7083;48.854;9.158;2023-11-21T08:11:55;8.20;99.90
14016;DHT22;7083;48.854;9.158;2023-11-21T08:14:22;8.30;99.90
14016;DHT22;7083;48.854;9.158;2023-11-21T08:16:50;8.30;99.90
14016;DHT22;7083;48.854;9.158;2023-11-21T08:19:17;8.40;99.90
14016;DHT22;7083;48.854;9.158;2023-11-21T08:21:44;8.50;99.90
14016;DHT22;7083;48.854;9.158;2023-11-21T08:24:11;8.60;99.90
14016;DHT22;7083;48.854;9.158;2023-11-21T08:26:39;8.60;99.90
14016;DHT22;7083;48.854;9.158;2023-11-21T08:29:06;8.60;99.90
14016;DHT22;7083;48.854;9.158;2023-11-21T08:31:33;8.60;99.90
14016;DHT22;7083;48.854;9.158;2023-11-21T08:34:00;8.60;99.90
14016;DHT22;7083;48.854;9.158;2023-11-21T08:36:28;8.70;99.90
14016;DHT22;7083;48.854;9.158;2023-11-21T08:38:57;8.70;99.90
14016;DHT22;7083;48.854;9.158;2023-11-21T08:41:23;8.70;99.90
14016;DHT22;7083;48.854;9.158;2023-11-21T08:43:51;8.80;99.90
14016;DHT22;7083;48.854;9.158;2023-11-21T08:46:19;8.80;99.90
14016;DHT22;7083;48.854;9.158;2023-11-21T08:48:46;8.80;99.90
14016;DHT22;7083;48.854;9.158;2023-11-21T08:51:12;8.80;99.90
14016;DHT22;7083;48.854;9.158;2023-11-21T08:53:40;8.90;99.90
14016;DHT22;7083;48.854;9.158;2023-11-21T08:56:07;8.90;99.90
14016;DHT22;7083;48.854;9.158;2023-11-21T08:58:35;9.00;99.90
14016;DHT22;7083;48.854;9.158;2023-11-21T09:01:05;9.00;99.90
14016;DHT22;7083;48.854;9.158;2023-11-21T09:03:32;9.00;99.90
14016;DHT22;7083;48.854;9.158;2023-11-21T09:05:59;9.10;99.90
14016;DHT22;7083;48.854;9.158;2023-11-21T09:08:26;9.20;99.90
14016;DHT22;7083;48.854;9.158;2023-11-21T09:10:54;9.20;99.90
14016;DHT22;7083;48.854;9.158;2023-11-21T09:13:20;9.20;99.90
14016;DHT22;7083;48.854;9.158;2023-11-21T09:15:47;9.10;99.90
14016;DHT22;7083;48.854;9.158;2023-11-21T09:18:16;9.20;99.90
14016;DHT22;7083;48.854;9.158;2023-11-21T09:20:43;9.10;99.90
14016;DHT22;7083;48.854;9.158;2023-11-21T09:23:10;9.10;99.90
14016;DHT22;7083;48.854;9.158;2023-11-21T09:25:37;9.30;99.90
14016;DHT22;7083;48.854;9.158;2023-11-21T09:28:03;9.00;99.90
14016;DHT22;7083;48.854;9.158;2023-11-21T09:30:33;8.90;99.90
14016;DHT22;7083;48.854;9.158;2023-11-21T09:33:00;8.90;99.90
14016;DHT22;7083;48.854;9.158;2023-11-21T09:35:28;8.80;99.90
14016;DHT22;7083;48.854;9.158;2023-11-21T09:37:55;8.90;99.90
14016;DHT22;7083;48.854;9.158;2023-11-21T09:40:22;8.80;99.90
14016;DHT22;7083;48.854;9.158;2023-11-21T09:42:53;8.70;99.90
14016;DHT22;7083;48.854;9.158;2023-11-21T09:45:25;8.70;99.90
14016;DHT22;7083;48.854;9.158;2023-11-21T09:47:53;8.60;99.90
14016;DHT22;7083;48.854;9.158;2023-11-21T09:50:21;8.60;99.90
14016;DHT22;7083;48.854;9.158;2023-11-21T09:52:55;8.50;99.90
14016;DHT22;7083;48.854;9.158;2023-11-21T09:55:26;8.60;99.90
14016;DHT22;7083;48.854;9.158;2023-11-21T09:57:56;8.60;99.90
14016;DHT22;7083;48.854;9.158;2023-11-21T10:00:23;8.60;99.90
14016;DHT22;7083;48.854;9.158;2023-11-21T10:02:50;8.60;99.90
14016;DHT22;7083;48.854;9.158;2023-11-21T10:05:18;8.60;99.90
14016;DHT22;7083;48.854;9.158;2023-11-21T10:07:50;8.60;99.90
14016;DHT22;7083;48.854;9.158;2023-11-21T10:10:19;8.50;99.90
14016;DHT22;7083;48.854;9.158;2023-11-21T10:12:49;8.50;99.90
14016;DHT22;7083;48.854;9.158;2023-11-21T10:15:21;8.60;99.90
14016;DHT22;7083;48.854;9.158;2023-11-21T10:17:49;8.50;99.90
14016;DHT22;7083;48.854;9.158;2023-11-21T10:20:16;8.50;99.90
14016;DHT22;7083;48.854;9.158;2023-11-21T10:22:43;8.50;99.90
14016;DHT22;7083;48.854;9.158;2023-11-21T10:25:13;8.50;99.90
14016;DHT22;7083;48.854;9.158;2023-11-21T10:27:41;8.60;99.90
14016;DHT22;7083;48.854;9.158;2023-11-21T10:30:09;8.70;99.90
14016;DHT22;7083;48.854;9.158;2023-11-21T10:32:37;8.70;99.90
14016;DHT22;7083;48.854;9.158;2023-11-21T10:35:06;8.80;99.90
14016;DHT22;7083;48.854;9.158;2023-11-21T10:37:35;8.80;99.90
14016;DHT22;7083;48.854;9.158;2023-11-21T10:40:05;9.00;99.90
14016;DHT22;7083;48.854;9.158;2023-11-21T10:42:34;9.10;99.90
14016;DHT22;7083;48.854;9.158;2023-11-21T10:45:00;9.10;99.90
14016;DHT22;7083;48.854;9.158;2023-11-21T10:47:28;9.20;99.90
14016;DHT22;7083;48.854;9.158;2023-11-21T10:49:55;9.20;99.90
14016;DHT22;7083;48.854;9.158;2023-11-21T10:52:26;9.20;99.90
14016;DHT22;7083;48.854;9.158;2023-11-21T10:54:54;9.20;99.90
14016;DHT22;7083;48.854;9.158;2023-11-21T10:57:22;9.10;99.90
14016;DHT22;7083;48.854;9.158;2023-11-21T10:59:54;9.10;99.90
14016;DHT22;7083;48.854;9.158;2023-11-21T11:02:23;9.50;99.90
14016;DHT22;7083;48.854;9.158;2023-11-21T11:04:53;9.20;99.90
14016;DHT22;7083;48.854;9.158;2023-11-21T11:07:21;9.40;99.90
14016;DHT22;7083;48.854;9.158;2023-11-21T11:09:51;9.40;99.90
14016;DHT22;7083;48.854;9.158;2023-11-21T11:12:18;9.50;99.90
14016;DHT22;7083;48.854;9.158;2023-11-21T11:14:45;9.60;99.90
14016;DHT22;7083;48.854;9.158;2023-11-21T11:17:14;9.70;99.90
14016;DHT22;7083;48.854;9.158;2023-11-21T11:19:41;9.80;99.90
14016;DHT22;7083;48.854;9.158;2023-11-21T11:22:24;9.90;99.90
14016;DHT22;7083;48.854;9.158;2023-11-21T11:25:11;9.90;99.90
14016;DHT22;7083;48.854;9.158;2023-11-21T11:27:49;10.00;99.90
14016;DHT22;7083;48.854;9.158;2023-11-21T11:30:31;9.90;99.90
14016;DHT22;7083;48.854;9.158;2023-11-21T11:33:12;9.90;99.90
14016;DHT22;7083;48.854;9.158;2023-11-21T11:38:32;9.80;99.90
14016;DHT22;7083;48.854;9.158;2023-11-21T11:41:02;9.80;99.90
14016;DHT22;7083;48.854;9.158;2023-11-21T11:43:30;9.80;99.90
14016;DHT22;7083;48.854;9.158;2023-11-21T11:45:58;9.90;99.90
14016;DHT22;7083;48.854;9.158;2023-11-21T11:48:30;10.00;99.90
14016;DHT22;7083;48.854;9.158;2023-11-21T11:51:03;10.10;99.90
14016;DHT22;7083;48.854;9.158;2023-11-21T11:53:35;10.00;99.90
14016;DHT22;7083;48.854;9.158;2023-11-21T11:56:30;9.90;99.90
14016;DHT22;7083;48.854;9.158;2023-11-21T11:59:01;9.80;99.90
14016;DHT22;7083;48.854;9.158;2023-11-21T12:01:31;9.80;99.90
14016;DHT22;7083;48.854;9.158;2023-11-21T12:04:24;9.80;99.90
14016;DHT22;7083;48.854;9.158;2023-11-21T12:06:59;9.70;99.90
14016;DHT22;7083;48.854;9.158;2023-11-21T12:09:28;9.70;99.90
14016;DHT22;7083;48.854;9.158;2023-11-21T12:11:56;9.70;99.90
14016;DHT22;7083;48.854;9.158;2023-11-21T12:14:23;9.70;99.90
14016;DHT22;7083;48.854;9.158;2023-11-21T12:16:51;12.10;99.90
14016;DHT22;7083;48.854;9.158;2023-11-21T12:19:19;9.70;99.90
14016;DHT22;7083;48.854;9.158;2023-11-21T12:21:48;9.60;99.90
14016;DHT22;7083;48.854;9.158;2023-11-21T12:24:16;9.70;99.90
14016;DHT22;7083;48.854;9.158;2023-11-21T12:26:43;9.80;99.90
14016;DHT22;7083;48.854;9.158;2023-11-21T12:29:09;9.90;99.90
14016;DHT22;7083;48.854;9.158;2023-11-21T12:31:36;10.10;99.90
14016;DHT22;7083;48.854;9.158;2023-11-21T12:34:03;10.20;99.90
14016;DHT22;7083;48.854;9.158;2023-11-21T12:36:32;10.30;99.90
14016;DHT22;7083;48.854;9.158;2023-11-21T12:39:01;10.60;99.90
14016;DHT22;7083;48.854;9.158;2023-11-21T12:41:29;10.80;99.90
14016;DHT22;7083;48.854;9.158;2023-11-21T12:43:56;11.00;99.90
14016;DHT22;7083;48.854;9.158;2023-11-21T12:46:23;11.00;99.90
14016;DHT22;7083;48.854;9.158;2023-11-21T12:48:53;11.00;99.90
14016;DHT22;7083;48.854;9.158;2023-11-21T12:51:21;11.10;99.90
14016;DHT22;7083;48.854;9.158;2023-11-21T12:53:49;11.20;99.90
14016;DHT22;7083;48.854;9.158;2023-11-21T12:56:17;11.00;99.90
14016;DHT22;7083;48.854;9.158;2023-11-21T12:58:45;10.60;99.90
14016;DHT22;7083;48.854;9.158;2023-11-21T13:01:13;10.10;99.90
14016;DHT22;7083;48.854;9.158;2023-11-21T13:03:46;9.70;99.90
14016;DHT22;7083;48.854;9.158;2023-11-21T13:06:14;9.50;99.90
14016;DHT22;7083;48.854;9.158;2023-11-21T13:08:41;9.30;99.90
14016;DHT22;7083;48.854;9.158;2023-11-21T13:11:11;9.10;99.90
14016;DHT22;7083;48.854;9.158;2023-11-21T13:13:41;9.00;99.90
14016;DHT22;7083;48.854;9.158;2023-11-21T13:16:08;8.90;99.90
14016;DHT22;7083;48.854;9.158;2023-11-21T13:18:35;8.80;99.90
14016;DHT22;7083;48.854;9.158;2023-11-21T13:21:04;8.80;99.90
14016;DHT22;7083;48.854;9.158;2023-11-21T13:23:36;8.70;99.90
14016;DHT22;7083;48.854;9.158;2023-11-21T13:26:03;8.60;99.90
14016;DHT22;7083;48.854;9.158;2023-11-21T13:28:30;8.70;99.90
14016;DHT22;7083;48.854;9.158;2023-11-21T13:30:59;8.70;99.90
14016;DHT22;7083;48.854;9.158;2023-11-21T13:33:29;8.70;99.90
14016;DHT22;7083;48.854;9.158;2023-11-21T13:35:56;8.80;99.90
14016;DHT22;7083;48.854;9.158;2023-11-21T13:38:23;8.80;99.90
14016;DHT22;7083;48.854;9.158;2023-11-21T13:40:51;8.80;99.90
14016;DHT22;7083;48.854;9.158;2023-11-21T13:43:19;8.90;99.90
14016;DHT22;7083;48.854;9.158;2023-11-21T13:45:48;8.90;99.90
14016;DHT22;7083;48.854;9.158;2023-11-21T13:48:18;9.00;99.90
14016;DHT22;7083;48.854;9.158;2023-11-21T13:50:57;9.00;99.90
14016;DHT22;7083;48.854;9.158;2023-11-21T13:53:26;9.00;99.90
14016;DHT22;7083;48.854;9.158;2023-11-21T13:55:54;9.00;99.90
14016;DHT22;7083;48.854;9.158;2023-11-21T13:58:23;9.00;99.90
14016;DHT22;7083;48.854;9.158;2023-11-21T14:01:00;9.00;99.90
14016;DHT22;7083;48.854;9.158;2023-11-21T14:03:32;8.90;99.90
14016;DHT22;7083;48.854;9.158;2023-11-21T14:06:08;8.90;99.90
14016;DHT22;7083;48.854;9.158;2023-11-21T14:08:39;8.90;99.90
14016;DHT22;7083;48.854;9.158;2023-11-21T14:11:06;8.90;99.90
14016;DHT22;7083;48.854;9.158;2023-11-21T14:13:34;8.80;99.90
14016;DHT22;7083;48.854;9.158;2023-11-21T14:16:01;8.80;99.90
14016;DHT22;7083;48.854;9.158;2023-11-21T14:18:28;8.80;99.90
14016;DHT22;7083;48.854;9.158;2023-11-21T14:21:03;8.80;99.90
14016;DHT22;7083;48.854;9.158;2023-11-21T14:23:31;8.80;99.90
14016;DHT22;7083;48.854;9.158;2023-11-21T14:26:00;8.80;99.90
14016;DHT22;7083;48.854;9.158;2023-11-21T14:28:27;8.80;99.90
14016;DHT22;7083;48.854;9.158;2023-11-21T14:30:53;8.70;99.90
14016;DHT22;7083;48.854;9.158;2023-11-21T14:33:20;8.60;99.90
14016;DHT22;7083;48.854;9.158;2023-11-21T14:35:47;8.60;99.90
14016;DHT22;7083;48.854;9.158;2023-11-21T14:38:15;8.60;99.90
14016;DHT22;7083;48.854;9.158;2023-11-21T14:40:42;8.60;99.90
14016;DHT22;7083;48.854;9.158;2023-11-21T14:43:08;8.60;99.90
14016;DHT22;7083;48.854;9.158;2023-11-21T14:45:35;8.60;99.90
14016;DHT22;7083;48.854;9.158;2023-11-21T14:48:02;8.60;99.90
14016;DHT22;7083;48.854;9.158;2023-11-21T14:50:34;8.60;99.90
14016;DHT22;7083;48.854;9.158;2023-11-21T14:53:13;8.60;99.90
14016;DHT22;7083;48.854;9.158;2023-11-21T14:55:40;8.70;99.90
14016;DHT22;7083;48.854;9.158;2023-11-21T14:58:23;8.60;99.90
14016;DHT22;7083;48.854;9.158;2023-11-21T15:00:55;8.60;99.90
14016;DHT22;7083;48.854;9.158;2023-11-21T15:03:24;8.50;99.90
14016;DHT22;7083;48.854;9.158;2023-11-21T15:06:09;8.40;99.90
14016;DHT22;7083;48.854;9.158;2023-11-21T15:08:49;8.40;99.90
14016;DHT22;7083;48.854;9.158;2023-11-21T15:11:22;8.40;99.90
14016;DHT22;7083;48.854;9.158;2023-11-21T15:13:56;8.30;99.90
14016;DHT22;7083;48.854;9.158;2023-11-21T15:16:23;8.20;99.90
14016;DHT22;7083;48.854;9.158;2023-11-21T15:18:51;8.20;99.90
14016;DHT22;7083;48.854;9.158;2023-11-21T15:21:18;8.20;99.90
14016;DHT22;7083;48.854;9.158;2023-11-21T15:23:47;8.20;99.90
14016;DHT22;7083;48.854;9.158;2023-11-21T15:26:14;8.20;99.90
14016;DHT22;7083;48.854;9.158;2023-11-21T15:28:42;8.20;99.90
14016;DHT22;7083;48.854;9.158;2023-11-21T15:31:08;8.20;99.90
14016;DHT22;7083;48.854;9.158;2023-11-21T15:33:35;8.20;99.90
14016;DHT22;7083;48.854;9.158;2023-11-21T15:36:03;8.10;99.90
14016;DHT22;7083;48.854;9.158;2023-11-21T15:38:30;8.10;99.90
14016;DHT22;7083;48.854;9.158;2023-11-21T15:40:57;8.10;99.90
14016;DHT22;7083;48.854;9.158;2023-11-21T15:43:25;8.60;99.90
14016;DHT22;7083;48.854;9.158;2023-11-21T15:45:54;8.10;99.90
14016;DHT22;7083;48.854;9.158;2023-11-21T15:48:21;8.00;99.90
14016;DHT22;7083;48.854;9.158;2023-11-21T15:50:48;8.00;99.90
14016;DHT22;7083;48.854;9.158;2023-11-21T15:53:17;8.00;99.90
14016;DHT22;7083;48.854;9.158;2023-11-21T15:55:44;8.00;99.90
14016;DHT22;7083;48.854;9.158;2023-11-21T15:58:11;7.90;99.90
14016;DHT22;7083;48.854;9.158;2023-11-21T16:00:38;7.90;99.90
14016;DHT22;7083;48.854;9.158;2023-11-21T16:03:06;7.90;99.90
14016;DHT22;7083;48.854;9.158;2023-11-21T16:05:34;7.80;99.90
14016;DHT22;7083;48.854;9.158;2023-11-21T16:08:01;7.80;99.90
14016;DHT22;7083;48.854;9.158;2023-11-21T16:10:28;7.80;99.90
14016;DHT22;7083;48.854;9.158;2023-11-21T16:12:55;7.70;99.90